createdAt,value
2018-11-11T15:31:37.970Z,21.72
2018-11-11T15:31:38.034Z,17.01
2018-11-11T15:31:38.093Z,9.72
2018-11-11T15:31:38.209Z,13.2
2018-11-11T15:31:38.263Z,7.12
2018-11-11T15:31:38.343Z,10.35
2018-11-11T15:31:38.398Z,10.35
2018-11-11T15:31:38.472Z,10.12
2018-11-11T15:31:38.521Z,10.36
2018-11-11T15:31:38.601Z,8.81
2018-11-11T15:31:38.665Z,11.06
2018-11-11T15:31:38.753Z,15.56
2018-11-11T15:31:38.845Z,12.51
2018-11-11T15:31:38.880Z,8.46
2018-11-11T15:31:38.928Z,13.17
2018-11-11T15:31:39.032Z,9.63
2018-11-11T15:31:39.114Z,9.63
2018-11-11T15:31:39.186Z,8.24
2018-11-11T15:31:39.241Z,13.69
2018-11-11T15:31:39.343Z,18.13
2018-11-11T15:31:39.393Z,16.87
2018-11-11T15:31:39.475Z,22.75
2018-11-11T15:31:39.532Z,14.15
2018-11-11T15:31:39.591Z,19.55
2018-11-11T15:31:39.656Z,12.85
2018-11-11T15:31:39.746Z,21.61
2018-11-11T15:31:39.859Z,21.61
2018-11-11T15:31:39.917Z,25.84
2018-11-11T15:31:39.995Z,11.16
2018-11-11T15:31:40.048Z,12.97
2018-11-11T15:31:40.117Z,11.44
2018-11-11T15:31:40.198Z,8.95
2018-11-11T15:31:40.270Z,17.24
2018-11-11T15:31:40.350Z,18.79
2018-11-11T15:31:40.384Z,16.72
2018-11-11T15:31:40.468Z,16.72
2018-11-11T15:31:40.527Z,8.99
2018-11-11T15:31:40.633Z,12.1
2018-11-11T15:31:40.720Z,10.26
2018-11-11T15:31:40.792Z,12.49
2018-11-11T15:31:40.869Z,6.7
2018-11-11T15:31:40.921Z,8.22
2018-11-11T15:31:40.992Z,9.58
2018-11-11T15:31:41.090Z,6.32
2018-11-11T15:31:41.144Z,13.23
2018-11-11T15:31:41.209Z,13.23
2018-11-11T15:31:41.261Z,11.54
2018-11-11T15:31:41.332Z,13.84
2018-11-11T15:31:41.459Z,9.64
2018-11-11T15:31:41.510Z,8.35
2018-11-11T15:31:41.579Z,8.8
2018-11-11T15:31:41.658Z,14.94
2018-11-11T15:31:41.722Z,18.97
2018-11-11T15:31:41.779Z,9.66
2018-11-11T15:31:41.833Z,15.12
2018-11-11T15:31:41.904Z,15.12
2018-11-11T15:31:41.956Z,14.25
2018-11-11T15:31:42.066Z,12.44
2018-11-11T15:31:42.121Z,13.32
2018-11-11T15:31:42.192Z,20.15
2018-11-11T15:31:42.330Z,12.74
2018-11-11T15:31:42.444Z,14.26
2018-11-11T15:31:42.544Z,13.03
2018-11-11T15:31:42.656Z,15.88
2018-11-11T15:31:42.713Z,18.09
2018-11-11T15:31:42.792Z,18.09
2018-11-11T15:31:42.842Z,23.46
2018-11-11T15:31:42.908Z,18.33
2018-11-11T15:31:42.981Z,21.94
2018-11-11T15:31:43.040Z,16.87
2018-11-11T15:31:43.116Z,22.96
2018-11-11T15:31:43.203Z,14.34
2018-11-11T15:31:43.276Z,27.61
2018-11-11T15:31:43.348Z,13.79
2018-11-11T15:31:43.456Z,25.45
2018-11-11T15:31:43.527Z,25.45
2018-11-11T15:31:43.604Z,15.49
2018-11-11T15:31:43.662Z,11.47
2018-11-11T15:31:43.737Z,30.12
2018-11-11T15:31:43.789Z,30.84
2018-11-11T15:31:43.865Z,18.32
2018-11-11T15:31:43.928Z,25.69
2018-11-11T15:31:43.996Z,41.65
2018-11-11T15:31:44.064Z,23.52
2018-11-11T15:31:44.138Z,14.69
2018-11-11T15:31:44.245Z,14.69
2018-11-11T15:31:44.339Z,21.02
2018-11-11T15:31:44.432Z,15.88
2018-11-11T15:31:44.549Z,14.81
2018-11-11T15:31:44.637Z,18.3
2018-11-11T15:31:44.761Z,14.98
2018-11-11T15:31:44.883Z,12
2018-11-11T15:31:44.944Z,19.74
2018-11-11T15:31:44.990Z,13.15
2018-11-11T15:31:45.092Z,13.15
2018-11-11T15:31:45.129Z,17.73
2018-11-11T15:31:45.214Z,20.63
2018-11-11T15:31:45.274Z,20.73
2018-11-11T15:31:45.337Z,14.74
2018-11-11T15:31:45.439Z,18.13
2018-11-11T15:31:45.501Z,15.37
2018-11-11T15:31:45.559Z,13.18
2018-11-11T15:31:45.663Z,25.27
2018-11-11T15:31:45.728Z,13.8
2018-11-11T15:31:45.815Z,13.8
2018-11-11T15:31:45.926Z,14.14
2018-11-11T15:31:45.991Z,28.02
2018-11-11T15:31:46.066Z,19.48
2018-11-11T15:31:46.122Z,14.74
2018-11-11T15:31:46.189Z,14.44
2018-11-11T15:31:46.231Z,19.27
2018-11-11T15:31:46.318Z,15.14
2018-11-11T15:31:46.388Z,23.93
2018-11-11T15:31:46.477Z,12.63
2018-11-11T15:31:46.561Z,12.63
2018-11-11T15:31:46.665Z,19.14
2018-11-11T15:31:46.717Z,16.31
2018-11-11T15:31:46.816Z,21.75
2018-11-11T15:31:46.864Z,25
2018-11-11T15:31:46.925Z,16.29
2018-11-11T15:31:47.035Z,28.52
2018-11-11T15:31:47.083Z,30.43
2018-11-11T15:31:47.147Z,33.19
2018-11-11T15:31:47.200Z,18.26
2018-11-11T15:31:47.308Z,18.26
2018-11-11T15:31:47.405Z,16.78
2018-11-11T15:31:47.445Z,15.47
2018-11-11T15:31:47.521Z,14.61
2018-11-11T15:31:47.593Z,18.85
2018-11-11T15:31:47.645Z,19.91
2018-11-11T15:31:47.717Z,18.24
2018-11-11T15:31:47.782Z,14.63
2018-11-11T15:31:47.857Z,11.48
2018-11-11T15:31:47.944Z,29.45
2018-11-11T15:31:48.011Z,29.45
2018-11-11T15:31:48.107Z,26.97
2018-11-11T15:31:48.167Z,11.8
2018-11-11T15:31:48.289Z,12.11
2018-11-11T15:31:48.393Z,18.87
2018-11-11T15:31:48.482Z,17.94
2018-11-11T15:31:48.566Z,12.13
2018-11-11T15:31:48.579Z,17.86
2018-11-11T15:31:48.654Z,24.88
2018-11-11T15:31:48.740Z,32.78
2018-11-11T15:31:48.816Z,32.78
2018-11-11T15:31:48.891Z,15.72
2018-11-11T15:31:48.990Z,19.04
2018-11-11T15:31:49.039Z,13.33
2018-11-11T15:31:49.109Z,20.62
2018-11-11T15:31:49.162Z,13.72
2018-11-11T15:31:49.306Z,13.5
2018-11-11T15:31:49.359Z,30.91
2018-11-11T15:31:49.430Z,14.55
2018-11-11T15:31:49.483Z,14.55
2018-11-11T15:31:49.551Z,18.03
2018-11-11T15:31:49.643Z,12.42
2018-11-11T15:31:49.689Z,11.75
2018-11-11T15:31:49.781Z,14.65
2018-11-11T15:31:49.873Z,11.02
2018-11-11T15:31:49.919Z,17.53
2018-11-11T15:31:50.049Z,10.04
2018-11-11T15:31:50.089Z,14.85
2018-11-11T15:31:50.128Z,21.25
2018-11-11T15:31:50.207Z,21.25
2018-11-11T15:31:50.271Z,13.72
2018-11-11T15:31:50.335Z,14.05
2018-11-11T15:31:50.454Z,16.31
2018-11-11T15:31:50.499Z,20.24
2018-11-11T15:31:50.535Z,17.96
2018-11-11T15:31:50.621Z,18.66
2018-11-11T15:31:50.723Z,23.89
2018-11-11T15:31:50.760Z,15.52
2018-11-11T15:31:50.859Z,23.08
2018-11-11T15:31:50.909Z,23.08
2018-11-11T15:31:51.021Z,42.8
2018-11-11T15:31:51.116Z,40.23
2018-11-11T15:31:51.175Z,27.89
2018-11-11T15:31:51.230Z,22.43
2018-11-11T15:31:51.295Z,50.64
2018-11-11T15:31:51.356Z,48.8
2018-11-11T15:31:51.430Z,44.55
2018-11-11T15:31:51.524Z,34.33
2018-11-11T15:31:51.603Z,16.26
2018-11-11T15:31:51.705Z,16.26
2018-11-11T15:31:51.802Z,22.98
2018-11-11T15:31:51.843Z,19.5
2018-11-11T15:31:51.957Z,33.51
2018-11-11T15:31:51.999Z,19.5
2018-11-11T15:31:52.071Z,33.8
2018-11-11T15:31:52.162Z,21.18
2018-11-11T15:31:52.205Z,24.83
2018-11-11T15:31:52.287Z,21.76
2018-11-11T15:31:52.380Z,28.2
2018-11-11T15:31:52.494Z,28.2
2018-11-11T15:31:52.555Z,27.02
2018-11-11T15:31:52.600Z,32.39
2018-11-11T15:31:52.668Z,32.97
2018-11-11T15:31:52.763Z,35.19
2018-11-11T15:31:52.817Z,19.44
2018-11-11T15:31:52.881Z,21.7
2018-11-11T15:31:52.953Z,27.75
2018-11-11T15:31:53.018Z,29.1
2018-11-11T15:31:53.081Z,29.1
2018-11-11T15:31:53.141Z,24.08
2018-11-11T15:31:53.217Z,23.91
2018-11-11T15:31:53.338Z,17.51
2018-11-11T15:31:53.423Z,23.02
2018-11-11T15:31:53.459Z,20.32
2018-11-11T15:31:53.585Z,23.98
2018-11-11T15:31:53.629Z,17.77
2018-11-11T15:31:53.685Z,31.58
2018-11-11T15:31:53.759Z,26.09
2018-11-11T15:31:53.820Z,26.09
2018-11-11T15:31:53.896Z,23.79
2018-11-11T15:31:54.003Z,25.35
2018-11-11T15:31:54.053Z,28.98
2018-11-11T15:31:54.126Z,18.97
2018-11-11T15:31:54.245Z,22.66
2018-11-11T15:31:54.349Z,17.34
2018-11-11T15:31:54.473Z,21.05
2018-11-11T15:31:54.575Z,17.96
2018-11-11T15:31:54.700Z,36.36
2018-11-11T15:31:54.774Z,36.36
2018-11-11T15:31:54.814Z,19.06
2018-11-11T15:31:54.890Z,22.92
2018-11-11T15:31:54.956Z,22.18
2018-11-11T15:31:55.029Z,29.29
2018-11-11T15:31:55.105Z,17.53
2018-11-11T15:31:55.158Z,20.91
2018-11-11T15:31:55.237Z,16.64
2018-11-11T15:31:55.297Z,21.54
2018-11-11T15:31:55.368Z,25.49
2018-11-11T15:31:55.425Z,25.49
2018-11-11T15:31:55.556Z,17.73
2018-11-11T15:31:55.634Z,19.83
2018-11-11T15:31:55.659Z,20.68
2018-11-11T15:31:55.751Z,26.85
2018-11-11T15:31:55.816Z,21.01
2018-11-11T15:31:55.873Z,17.21
2018-11-11T15:31:55.940Z,20.48
2018-11-11T15:31:56.027Z,14.77
2018-11-11T15:31:56.082Z,13.37
2018-11-11T15:31:56.174Z,13.37
2018-11-11T15:31:56.239Z,15.1
2018-11-11T15:31:56.396Z,47.45
2018-11-11T15:31:56.447Z,14.69
2018-11-11T15:31:56.515Z,16.2
2018-11-11T15:31:56.577Z,17.21
2018-11-11T15:31:56.671Z,16.55
2018-11-11T15:31:56.728Z,19.39
2018-11-11T15:31:56.808Z,21.24
2018-11-11T15:31:56.876Z,15.18
2018-11-11T15:31:56.970Z,15.18
2018-11-11T15:31:57.033Z,36.74
2018-11-11T15:31:57.130Z,9.46
2018-11-11T15:31:57.179Z,14.15
2018-11-11T15:31:57.257Z,16.97
2018-11-11T15:31:57.346Z,44.96
2018-11-11T15:31:57.429Z,9.77
2018-11-11T15:31:57.466Z,12.84
2018-11-11T15:31:57.526Z,53.61
2018-11-11T15:31:57.616Z,53.61
2018-11-11T15:31:57.686Z,18.81
2018-11-11T15:31:57.750Z,10.73
2018-11-11T15:31:57.819Z,16.47
2018-11-11T15:31:57.935Z,12.31
2018-11-11T15:31:58.017Z,20.29
2018-11-11T15:31:58.065Z,21.43
2018-11-11T15:31:58.134Z,20.89
2018-11-11T15:31:58.206Z,9.07
2018-11-11T15:31:58.256Z,13.42
2018-11-11T15:31:58.367Z,13.42
2018-11-11T15:31:58.395Z,12.19
2018-11-11T15:31:58.465Z,10.88
2018-11-11T15:31:58.530Z,16.11
2018-11-11T15:31:58.614Z,28.03
2018-11-11T15:31:58.670Z,34.99
2018-11-11T15:31:58.786Z,19.46
2018-11-11T15:31:58.869Z,14.08
2018-11-11T15:31:58.907Z,16.76
2018-11-11T15:31:58.978Z,14.8
2018-11-11T15:31:59.028Z,14.8
2018-11-11T15:31:59.125Z,18.01
2018-11-11T15:31:59.214Z,14.92
2018-11-11T15:31:59.263Z,17.2
2018-11-11T15:31:59.325Z,13.83
2018-11-11T15:31:59.409Z,32.1
2018-11-11T15:31:59.447Z,16.43
2018-11-11T15:31:59.565Z,19.62
2018-11-11T15:31:59.617Z,11.79
2018-11-11T15:31:59.727Z,14.17
2018-11-11T15:31:59.818Z,14.17
2018-11-11T15:31:59.904Z,13.12
2018-11-11T15:32:00.111Z,16.97
2018-11-11T15:32:00.196Z,16.18
2018-11-11T15:32:00.219Z,25.7
2018-11-11T15:32:00.368Z,25.61
2018-11-11T15:32:00.429Z,17.53
2018-11-11T15:32:00.486Z,46.99
2018-11-11T15:32:00.568Z,37.69
2018-11-11T15:32:00.648Z,13.49
2018-11-11T15:32:00.709Z,13.49
2018-11-11T15:32:00.792Z,17.48
2018-11-11T15:32:00.851Z,24.41
2018-11-11T15:32:00.902Z,19
2018-11-11T15:32:00.976Z,15.61
2018-11-11T15:32:01.063Z,16.42
2018-11-11T15:32:01.119Z,17
2018-11-11T15:32:01.223Z,23.79
2018-11-11T15:32:01.275Z,13
2018-11-11T15:32:01.352Z,21.68
2018-11-11T15:32:01.422Z,21.68
2018-11-11T15:32:01.473Z,15.57
2018-11-11T15:32:01.523Z,15.47
2018-11-11T15:32:01.639Z,33.58
2018-11-11T15:32:01.665Z,16.8
2018-11-11T15:32:01.729Z,16.24
2018-11-11T15:32:01.844Z,16.81
2018-11-11T15:32:01.883Z,20.99
2018-11-11T15:32:02.017Z,14.74
2018-11-11T15:32:02.054Z,14.74
2018-11-11T15:32:02.154Z,15.72
2018-11-11T15:32:02.253Z,17.4
2018-11-11T15:32:02.272Z,13.57
2018-11-11T15:32:02.357Z,17.05
2018-11-11T15:32:02.433Z,30.77
2018-11-11T15:32:02.462Z,32.94
2018-11-11T15:32:02.587Z,14.92
2018-11-11T15:32:02.619Z,19.66
2018-11-11T15:32:02.680Z,20.91
2018-11-11T15:32:02.779Z,20.91
2018-11-11T15:32:02.842Z,16.79
2018-11-11T15:32:02.914Z,15.75
2018-11-11T15:32:02.985Z,18.78
2018-11-11T15:32:03.027Z,12.6
2018-11-11T15:32:03.115Z,10.81
2018-11-11T15:32:03.196Z,9.33
2018-11-11T15:32:03.235Z,12.82
2018-11-11T15:32:03.313Z,13.41
2018-11-11T15:32:03.401Z,9.94
2018-11-11T15:32:03.458Z,9.94
2018-11-11T15:32:03.520Z,13.73
2018-11-11T15:32:03.640Z,10.43
2018-11-11T15:32:03.717Z,8.62
2018-11-11T15:32:03.782Z,7.36
2018-11-11T15:32:03.840Z,5.98
2018-11-11T15:32:03.921Z,6.23
2018-11-11T15:32:04.017Z,4.6
2018-11-11T15:32:04.052Z,7.11
2018-11-11T15:32:04.105Z,5.24
2018-11-11T15:32:04.192Z,5.24
2018-11-11T15:32:04.259Z,5.71
2018-11-11T15:32:04.380Z,16.58
2018-11-11T15:32:04.454Z,13.85
2018-11-11T15:32:04.513Z,4.68
2018-11-11T15:32:04.571Z,5.1
2018-11-11T15:32:04.633Z,23.56
2018-11-11T15:32:04.713Z,27.86
2018-11-11T15:32:04.766Z,5.39
2018-11-11T15:32:04.873Z,11.45
2018-11-11T15:32:04.909Z,11.45
2018-11-11T15:32:04.979Z,20.28
2018-11-11T15:32:05.057Z,9.71
2018-11-11T15:32:05.128Z,5.36
2018-11-11T15:32:05.236Z,5.37
2018-11-11T15:32:05.308Z,8.61
2018-11-11T15:32:05.381Z,10.68
2018-11-11T15:32:05.437Z,4.8
2018-11-11T15:32:05.497Z,7.92
2018-11-11T15:32:05.569Z,8.8
2018-11-11T15:32:05.642Z,8.8
2018-11-11T15:32:05.704Z,7.75
2018-11-11T15:32:05.778Z,5.02
2018-11-11T15:32:05.846Z,11.42
2018-11-11T15:32:05.919Z,21.61
2018-11-11T15:32:05.985Z,12.69
2018-11-11T15:32:06.093Z,4.45
2018-11-11T15:32:06.204Z,4.36
2018-11-11T15:32:06.298Z,19.29
2018-11-11T15:32:06.408Z,19.29
2018-11-11T15:32:06.505Z,11
2018-11-11T15:32:06.601Z,8.02
2018-11-11T15:32:06.725Z,5.86
2018-11-11T15:32:06.792Z,11.15
2018-11-11T15:32:06.865Z,12.63
2018-11-11T15:32:06.940Z,8.09
2018-11-11T15:32:06.993Z,4.55
2018-11-11T15:32:07.107Z,10.74
2018-11-11T15:32:07.143Z,6.43
2018-11-11T15:32:07.206Z,6.43
2018-11-11T15:32:07.333Z,5.67
2018-11-11T15:32:07.384Z,7.95
2018-11-11T15:32:07.447Z,6.34
2018-11-11T15:32:07.567Z,5.63
2018-11-11T15:32:07.634Z,28.31
2018-11-11T15:32:07.704Z,23.31
2018-11-11T15:32:07.777Z,4.25
2018-11-11T15:32:07.820Z,8.27
2018-11-11T15:32:07.888Z,6.7
2018-11-11T15:32:07.968Z,6.7
2018-11-11T15:32:08.062Z,8.64
2018-11-11T15:32:08.123Z,22.52
2018-11-11T15:32:08.216Z,4.29
2018-11-11T15:32:08.266Z,8.62
2018-11-11T15:32:08.372Z,5.56
2018-11-11T15:32:08.425Z,4.23
2018-11-11T15:32:08.516Z,9.37
2018-11-11T15:32:08.573Z,6.3
2018-11-11T15:32:08.636Z,4.42
2018-11-11T15:32:08.706Z,4.42
2018-11-11T15:32:08.768Z,8.3
2018-11-11T15:32:08.842Z,4.6
2018-11-11T15:32:08.901Z,13.85
2018-11-11T15:32:08.981Z,12.71
2018-11-11T15:32:09.096Z,5.48
2018-11-11T15:32:09.159Z,6.9
2018-11-11T15:32:09.253Z,4.65
2018-11-11T15:32:09.331Z,23.84
2018-11-11T15:32:09.395Z,4.05
2018-11-11T15:32:09.454Z,4.05
2018-11-11T15:32:09.527Z,8.83
2018-11-11T15:32:09.608Z,10.68
2018-11-11T15:32:09.639Z,3.03
2018-11-11T15:32:09.699Z,3.93
2018-11-11T15:32:09.770Z,12.76
2018-11-11T15:32:09.857Z,8.03
2018-11-11T15:32:09.961Z,8.48
2018-11-11T15:32:10.053Z,3.22
2018-11-11T15:32:10.149Z,3.22
2018-11-11T15:32:10.238Z,3.93
2018-11-11T15:32:10.356Z,11.86
2018-11-11T15:32:10.457Z,2.86
2018-11-11T15:32:10.578Z,3.74
2018-11-11T15:32:10.650Z,3.55
2018-11-11T15:32:10.763Z,4.24
2018-11-11T15:32:10.877Z,4.42
2018-11-11T15:32:10.983Z,3.06
2018-11-11T15:32:11.064Z,4.79
2018-11-11T15:32:11.120Z,4.79
2018-11-11T15:32:11.176Z,12.32
2018-11-11T15:32:11.264Z,6.97
2018-11-11T15:32:11.336Z,4.67
2018-11-11T15:32:11.398Z,4.91
2018-11-11T15:32:11.467Z,4.07
2018-11-11T15:32:11.554Z,3.56
2018-11-11T15:32:11.634Z,2.64
2018-11-11T15:32:11.689Z,2.6
2018-11-11T15:32:11.764Z,3.18
2018-11-11T15:32:11.848Z,3.18
2018-11-11T15:32:11.936Z,5.55
2018-11-11T15:32:12.008Z,6.74
2018-11-11T15:32:12.088Z,6.59
2018-11-11T15:32:12.139Z,2.96
2018-11-11T15:32:12.240Z,2.71
2018-11-11T15:32:12.304Z,3.63
2018-11-11T15:32:12.379Z,2.85
2018-11-11T15:32:12.433Z,3.77
2018-11-11T15:32:12.498Z,2.89
2018-11-11T15:32:12.601Z,2.89
2018-11-11T15:32:12.664Z,3.43
2018-11-11T15:32:12.734Z,3.41
2018-11-11T15:32:12.799Z,3.48
2018-11-11T15:32:12.882Z,3.07
2018-11-11T15:32:12.951Z,3.97
2018-11-11T15:32:13.040Z,3.33
2018-11-11T15:32:13.055Z,2.79
2018-11-11T15:32:13.134Z,3.83
2018-11-11T15:32:13.205Z,3.45
2018-11-11T15:32:13.274Z,3.45
2018-11-11T15:32:13.337Z,3.58
2018-11-11T15:32:13.438Z,3.47
2018-11-11T15:32:13.541Z,4.99
2018-11-11T15:32:13.581Z,4.3
2018-11-11T15:32:13.650Z,4.16
2018-11-11T15:32:13.733Z,15.29
2018-11-11T15:32:13.807Z,3.83
2018-11-11T15:32:13.915Z,5.68
2018-11-11T15:32:13.989Z,5.68
2018-11-11T15:32:14.057Z,5.12
2018-11-11T15:32:14.170Z,4.74
2018-11-11T15:32:14.203Z,4.56
2018-11-11T15:32:14.334Z,3.57
2018-11-11T15:32:14.428Z,4.18
2018-11-11T15:32:14.503Z,2.99
2018-11-11T15:32:14.571Z,3.85
2018-11-11T15:32:14.613Z,26.25
2018-11-11T15:32:14.677Z,4.5
2018-11-11T15:32:14.781Z,4.5
2018-11-11T15:32:14.825Z,7.72
2018-11-11T15:32:14.880Z,2.76
2018-11-11T15:32:14.960Z,2.8
2018-11-11T15:32:15.044Z,2.92
2018-11-11T15:32:15.140Z,8.31
2018-11-11T15:32:15.229Z,5.38
2018-11-11T15:32:15.319Z,2.82
2018-11-11T15:32:15.386Z,5.21
2018-11-11T15:32:15.449Z,3.4
2018-11-11T15:32:15.513Z,3.4
2018-11-11T15:32:15.604Z,7.57
2018-11-11T15:32:15.642Z,3.01
2018-11-11T15:32:15.702Z,2.56
2018-11-11T15:32:15.758Z,2.93
2018-11-11T15:32:15.846Z,3.55
2018-11-11T15:32:15.931Z,2.49
2018-11-11T15:32:16.015Z,2.45
2018-11-11T15:32:16.078Z,3.26
2018-11-11T15:32:16.149Z,2.84
2018-11-11T15:32:16.199Z,2.84
2018-11-11T15:32:16.294Z,2.72
2018-11-11T15:32:16.362Z,11.05
2018-11-11T15:32:16.428Z,6.25
2018-11-11T15:32:16.488Z,7.45
2018-11-11T15:32:16.563Z,3.68
2018-11-11T15:32:16.623Z,12.51
2018-11-11T15:32:16.713Z,3.15
2018-11-11T15:32:16.808Z,3.19
2018-11-11T15:32:16.919Z,3.66
2018-11-11T15:32:17.049Z,3.66
2018-11-11T15:32:17.115Z,3.14
2018-11-11T15:32:17.197Z,2.83
2018-11-11T15:32:17.270Z,3.62
2018-11-11T15:32:17.314Z,9.12
2018-11-11T15:32:17.390Z,4.65
2018-11-11T15:32:17.452Z,2.67
2018-11-11T15:32:17.537Z,3.63
2018-11-11T15:32:17.597Z,3.19
2018-11-11T15:32:17.657Z,3.19
2018-11-11T15:32:17.729Z,3.86
2018-11-11T15:32:17.803Z,8.21
2018-11-11T15:32:17.900Z,7.26
2018-11-11T15:32:18.008Z,5.5
2018-11-11T15:32:18.070Z,5.47
2018-11-11T15:32:18.150Z,10.57
2018-11-11T15:32:18.207Z,11.99
2018-11-11T15:32:18.268Z,3.5
2018-11-11T15:32:18.335Z,3.88
2018-11-11T15:32:18.394Z,3.88
2018-11-11T15:32:18.482Z,5.46
2018-11-11T15:32:18.548Z,4.14
2018-11-11T15:32:18.646Z,3.12
2018-11-11T15:32:18.693Z,7.76
2018-11-11T15:32:18.789Z,3.16
2018-11-11T15:32:18.854Z,3.06
2018-11-11T15:32:18.916Z,2.65
2018-11-11T15:32:18.982Z,4.11
2018-11-11T15:32:19.049Z,4
2018-11-11T15:32:19.111Z,4
2018-11-11T15:32:19.193Z,3.27
2018-11-11T15:32:19.226Z,5.2
2018-11-11T15:32:19.302Z,4.43
2018-11-11T15:32:19.395Z,5.02
2018-11-11T15:32:19.442Z,4.76
2018-11-11T15:32:19.526Z,10.69
2018-11-11T15:32:19.646Z,5.43
2018-11-11T15:32:19.686Z,15.46
2018-11-11T15:32:19.770Z,8.28
2018-11-11T15:32:19.805Z,8.28
2018-11-11T15:32:19.906Z,3.95
2018-11-11T15:32:20.005Z,3.05
2018-11-11T15:32:20.050Z,3.63
2018-11-11T15:32:20.128Z,3.84
2018-11-11T15:32:20.190Z,3.73
2018-11-11T15:32:20.262Z,2.88
2018-11-11T15:32:20.345Z,2.94
2018-11-11T15:32:20.415Z,2.66
2018-11-11T15:32:20.506Z,4.31
2018-11-11T15:32:20.545Z,4.31
2018-11-11T15:32:20.605Z,4.05
2018-11-11T15:32:20.688Z,6.15
2018-11-11T15:32:20.759Z,2.86
2018-11-11T15:32:20.816Z,5.46
2018-11-11T15:32:20.901Z,6.4
2018-11-11T15:32:20.969Z,5.02
2018-11-11T15:32:21.029Z,4.77
2018-11-11T15:32:21.100Z,3.28
2018-11-11T15:32:21.187Z,3.28
2018-11-11T15:32:21.294Z,3.67
2018-11-11T15:32:21.366Z,5.76
2018-11-11T15:32:21.429Z,4.39
2018-11-11T15:32:21.501Z,3.73
2018-11-11T15:32:21.584Z,3.42
2018-11-11T15:32:21.633Z,11.87
2018-11-11T15:32:21.685Z,14.58
2018-11-11T15:32:21.746Z,3.9
2018-11-11T15:32:21.829Z,6.94
2018-11-11T15:32:21.873Z,6.94
2018-11-11T15:32:21.946Z,4.39
2018-11-11T15:32:22.015Z,7.36
2018-11-11T15:32:22.148Z,7.03
2018-11-11T15:32:22.192Z,3.59
2018-11-11T15:32:22.284Z,5.25
2018-11-11T15:32:22.336Z,5.52
2018-11-11T15:32:22.390Z,4.92
2018-11-11T15:32:22.459Z,3.82
2018-11-11T15:32:22.531Z,11.92
2018-11-11T15:32:22.587Z,11.92
2018-11-11T15:32:22.711Z,18.34
2018-11-11T15:32:22.744Z,6.41
2018-11-11T15:32:22.781Z,8.07
2018-11-11T15:32:22.854Z,3.18
2018-11-11T15:32:22.969Z,5.46
2018-11-11T15:32:23.053Z,9.06
2018-11-11T15:32:23.145Z,4.16
2018-11-11T15:32:23.196Z,8.56
2018-11-11T15:32:23.262Z,7.45
2018-11-11T15:32:23.314Z,7.45
2018-11-11T15:32:23.388Z,6.37
2018-11-11T15:32:23.466Z,9.99
2018-11-11T15:32:23.522Z,7.56
2018-11-11T15:32:23.591Z,23.39
2018-11-11T15:32:23.653Z,19.97
2018-11-11T15:32:23.770Z,52.88
2018-11-11T15:32:23.848Z,43.2
2018-11-11T15:32:23.881Z,48.27
2018-11-11T15:32:23.956Z,32.26
2018-11-11T15:32:24.002Z,32.26
2018-11-11T15:32:24.114Z,29.19
2018-11-11T15:32:24.166Z,15.19
2018-11-11T15:32:24.231Z,20.8
2018-11-11T15:32:24.352Z,40.65
2018-11-11T15:32:24.439Z,49.73
2018-11-11T15:32:24.474Z,41.73
2018-11-11T15:32:24.570Z,42.9
2018-11-11T15:32:24.719Z,53.01
2018-11-11T15:32:24.807Z,71.77
2018-11-11T15:32:24.878Z,65.76
2018-11-11T15:32:24.924Z,88.99
2018-11-11T15:32:25.004Z,71.47
2018-11-11T15:32:25.076Z,79.21
2018-11-11T15:32:25.159Z,73.5
2018-11-11T15:32:25.246Z,82.87
2018-11-11T15:32:25.328Z,57.61
2018-11-11T15:32:25.465Z,51.73
2018-11-11T15:32:25.573Z,51.73
2018-11-11T15:32:25.637Z,52.36
2018-11-11T15:32:25.723Z,45.77
2018-11-11T15:32:25.800Z,25.77
2018-11-11T15:32:25.840Z,25.38
2018-11-11T15:32:25.900Z,32.84
2018-11-11T15:32:26.011Z,47.93
2018-11-11T15:32:26.068Z,48.81
2018-11-11T15:32:26.144Z,58.08
2018-11-11T15:32:26.186Z,21.84
2018-11-11T15:32:26.246Z,21.84
2018-11-11T15:32:26.388Z,18.28
2018-11-11T15:32:26.431Z,15.77
2018-11-11T15:32:26.495Z,20.56
2018-11-11T15:32:26.551Z,14.77
2018-11-11T15:32:26.658Z,15.09
2018-11-11T15:32:26.737Z,12.18
2018-11-11T15:32:26.793Z,21.32
2018-11-11T15:32:26.857Z,23.9
2018-11-11T15:32:26.967Z,24.6
2018-11-11T15:32:27.007Z,24.6
2018-11-11T15:32:27.085Z,22.89
2018-11-11T15:32:27.185Z,24.85
2018-11-11T15:32:27.311Z,28.22
2018-11-11T15:32:27.358Z,21.47
2018-11-11T15:32:27.401Z,23.83
2018-11-11T15:32:27.517Z,25.84
2018-11-11T15:32:27.587Z,17.06
2018-11-11T15:32:27.678Z,25.79
2018-11-11T15:32:27.720Z,28.17
2018-11-11T15:32:27.793Z,28.17
2018-11-11T15:32:27.900Z,22.19
2018-11-11T15:32:27.950Z,20.61
2018-11-11T15:32:28.067Z,21.81
2018-11-11T15:32:28.158Z,21.33
2018-11-11T15:32:28.248Z,26.76
2018-11-11T15:32:28.283Z,26.37
2018-11-11T15:32:28.378Z,33.93
2018-11-11T15:32:28.438Z,26.43
2018-11-11T15:32:28.510Z,20.09
2018-11-11T15:32:28.600Z,20.09
2018-11-11T15:32:28.646Z,20.13
2018-11-11T15:32:28.723Z,35.13
2018-11-11T15:32:28.788Z,15.98
2018-11-11T15:32:28.903Z,21.86
2018-11-11T15:32:28.966Z,20.42
2018-11-11T15:32:29.046Z,21.31
2018-11-11T15:32:29.134Z,15.69
2018-11-11T15:32:29.175Z,26.32
2018-11-11T15:32:29.248Z,26.32
2018-11-11T15:32:29.315Z,36.9
2018-11-11T15:32:29.377Z,23.32
2018-11-11T15:32:29.451Z,20.73
2018-11-11T15:32:29.529Z,31.49
2018-11-11T15:32:29.607Z,21.21
2018-11-11T15:32:29.682Z,18.83
2018-11-11T15:32:29.783Z,15.91
2018-11-11T15:32:29.847Z,20.18
2018-11-11T15:32:29.984Z,15.43
2018-11-11T15:32:30.173Z,15.43
2018-11-11T15:32:30.230Z,17.47
2018-11-11T15:32:30.305Z,18.94
2018-11-11T15:32:30.371Z,15.88
2018-11-11T15:32:30.439Z,19.1
2018-11-11T15:32:30.634Z,19.3
2018-11-11T15:32:30.634Z,19.53
2018-11-11T15:32:30.704Z,19.45
2018-11-11T15:32:30.781Z,15.16
2018-11-11T15:32:30.822Z,16.79
2018-11-11T15:32:30.888Z,16.79
2018-11-11T15:32:30.978Z,14.34
2018-11-11T15:32:31.042Z,15.91
2018-11-11T15:32:31.097Z,14.48
2018-11-11T15:32:31.168Z,30.08
2018-11-11T15:32:31.267Z,16.14
2018-11-11T15:32:31.352Z,18.48
2018-11-11T15:32:31.390Z,13.53
2018-11-11T15:32:31.469Z,15.44
2018-11-11T15:32:31.546Z,12.22
2018-11-11T15:32:31.626Z,12.22
2018-11-11T15:32:31.684Z,15.05
2018-11-11T15:32:31.760Z,17.45
2018-11-11T15:32:31.813Z,17.75
2018-11-11T15:32:31.897Z,11.61
2018-11-11T15:32:32.052Z,15.65
2018-11-11T15:32:32.071Z,7.06
2018-11-11T15:32:32.167Z,12.01
2018-11-11T15:32:32.217Z,8.47
2018-11-11T15:32:32.300Z,13.06
2018-11-11T15:32:32.348Z,13.06
2018-11-11T15:32:32.431Z,35.89
2018-11-11T15:32:32.504Z,35.26
2018-11-11T15:32:32.612Z,9.05
2018-11-11T15:32:32.625Z,34.44
2018-11-11T15:32:32.708Z,12.08
2018-11-11T15:32:32.798Z,19.8
2018-11-11T15:32:32.822Z,7.32
2018-11-11T15:32:33.002Z,9.46
2018-11-11T15:32:33.015Z,8.28
2018-11-11T15:32:33.071Z,8.28
2018-11-11T15:32:33.144Z,9.38
2018-11-11T15:32:33.204Z,27
2018-11-11T15:32:33.307Z,25.67
2018-11-11T15:32:33.345Z,21.15
2018-11-11T15:32:33.427Z,17.9
2018-11-11T15:32:33.498Z,10.73
2018-11-11T15:32:33.585Z,16.09
2018-11-11T15:32:33.625Z,12.24
2018-11-11T15:32:33.704Z,15.04
2018-11-11T15:32:33.829Z,15.04
2018-11-11T15:32:33.880Z,11.29
2018-11-11T15:32:33.947Z,10.79
2018-11-11T15:32:34.016Z,11.3
2018-11-11T15:32:34.083Z,12.13
2018-11-11T15:32:34.165Z,12.68
2018-11-11T15:32:34.204Z,18.65
2018-11-11T15:32:34.241Z,11.69
2018-11-11T15:32:34.361Z,17.4
2018-11-11T15:32:34.432Z,17.4
2018-11-11T15:32:34.473Z,37.07
2018-11-11T15:32:34.588Z,35.42
2018-11-11T15:32:34.660Z,18.96
2018-11-11T15:32:34.707Z,14.89
2018-11-11T15:32:34.795Z,13.27
2018-11-11T15:32:34.877Z,25.52
2018-11-11T15:32:34.938Z,12.56
2018-11-11T15:32:35.007Z,10.5
2018-11-11T15:32:35.040Z,10.84
2018-11-11T15:32:35.131Z,10.84
2018-11-11T15:32:35.209Z,12.68
2018-11-11T15:32:35.264Z,12.25
2018-11-11T15:32:35.359Z,11.01
2018-11-11T15:32:35.446Z,11.92
2018-11-11T15:32:35.492Z,13.08
2018-11-11T15:32:35.567Z,7.82
2018-11-11T15:32:35.632Z,15.05
2018-11-11T15:32:35.693Z,7.85
2018-11-11T15:32:35.757Z,12.92
2018-11-11T15:32:35.832Z,12.92
2018-11-11T15:32:35.900Z,10.86
2018-11-11T15:32:35.973Z,15.74
2018-11-11T15:32:36.034Z,9.67
2018-11-11T15:32:36.144Z,10.7
2018-11-11T15:32:36.226Z,8.32
2018-11-11T15:32:36.284Z,9.73
2018-11-11T15:32:36.347Z,10.16
2018-11-11T15:32:36.438Z,10.26
2018-11-11T15:32:36.506Z,11.22
2018-11-11T15:32:36.561Z,11.22
2018-11-11T15:32:36.637Z,8.41
2018-11-11T15:32:36.693Z,10.69
2018-11-11T15:32:36.773Z,12.15